HR-0010 weather

Mirkovac Airstrip
Osijek-Baranja County, Croatia

Public forecast

Using degrees Celsius for public forecast. Weather courtesy of forecast.io.

METAR (pilot weather report)

Closest report is Osijek Airport, 16.1 nm (29.9 km) S. Retrieved 2019/06/21 00:30 UTC (0 seconds ago):

LDOS 210030Z 14004KT CAVOK 18/18 Q1013

TAF (pilot weather forecast)

Forecast is more than 12 hours old.

Closest forecast is Osijek Airport, 16.1 nm (29.9 km) S. Retrieved 2019/06/20 00:00 UTC (1 day ago):

TAF LDOS 202325Z 2100/2200 09005KT CAVOK TX29/2113Z TN17/2104Z PROB30 2102/2106 0500 FG PROB40 TEMPO 2111/2116 TSRA FEW030 SCT035